createdAt,value
2022-09-28T00:00:53.960Z,9.8
2022-09-28T00:03:53.978Z,10.2
2022-09-28T00:06:53.985Z,11
2022-09-28T00:09:54.030Z,11.5
2022-09-28T00:12:54.015Z,11.4
2022-09-28T00:15:54.080Z,12
2022-09-28T00:18:54.026Z,12.2
2022-09-28T00:21:54.044Z,12.5
2022-09-28T00:24:54.054Z,12.1
2022-09-28T00:27:54.093Z,12.2
2022-09-28T00:30:54.087Z,12.4
2022-09-28T00:33:54.096Z,12.5
2022-09-28T00:36:54.103Z,12.7
2022-09-28T00:39:54.110Z,13.2
2022-09-28T00:42:54.126Z,14.2
2022-09-28T00:45:54.223Z,14
2022-09-28T00:48:54.153Z,14.5
2022-09-28T00:51:54.157Z,14.5
2022-09-28T00:54:54.176Z,15.6
2022-09-28T00:57:54.184Z,16
2022-09-28T01:00:54.256Z,16.1
2022-09-28T01:03:54.238Z,17.5
2022-09-28T01:06:54.224Z,16.9
2022-09-28T01:09:54.234Z,17.2
2022-09-28T01:12:54.243Z,18.3
2022-09-28T01:15:54.287Z,18.7
2022-09-28T01:18:54.267Z,18.4
2022-09-28T01:21:54.312Z,19.2
2022-09-28T01:24:54.299Z,19.4
2022-09-28T01:27:54.304Z,19.9
2022-09-28T01:30:54.333Z,19.3
2022-09-28T01:33:54.337Z,19.3
2022-09-28T01:36:54.348Z,20
2022-09-28T01:39:54.389Z,21.1
2022-09-28T01:42:54.364Z,21.2
2022-09-28T01:45:54.396Z,21.7
2022-09-28T01:48:54.397Z,21.7
2022-09-28T01:51:54.410Z,22.3
2022-09-28T01:54:54.425Z,23
2022-09-28T01:57:54.468Z,23.3
2022-09-28T02:00:54.476Z,22.6
2022-09-28T02:03:54.464Z,23.2
2022-09-28T02:06:54.474Z,22.7
2022-09-28T02:09:54.486Z,23.2
2022-09-28T02:12:54.502Z,22.9
2022-09-28T02:15:54.602Z,22.8
2022-09-28T02:18:54.527Z,22.6
2022-09-28T02:21:54.539Z,22.5
2022-09-28T02:24:54.557Z,23.3
2022-09-28T02:27:54.569Z,22.7
2022-09-28T02:30:54.581Z,23.2
2022-09-28T02:33:54.623Z,22.5
2022-09-28T02:36:54.609Z,23.3
2022-09-28T02:39:54.628Z,24.4
2022-09-28T02:42:54.647Z,22.2
2022-09-28T02:45:54.705Z,24.6
2022-09-28T02:49:05.165Z,23.6
2022-09-28T02:51:54.721Z,23.3
2022-09-28T02:54:54.701Z,24.1
2022-09-28T02:57:54.716Z,22.9
2022-09-28T03:00:54.763Z,24.5
2022-09-28T03:03:54.741Z,26.7
2022-09-28T03:06:54.753Z,24.8
2022-09-28T03:09:54.796Z,25.5
2022-09-28T03:12:54.774Z,26.1
2022-09-28T03:15:54.823Z,26.1
2022-09-28T03:18:54.810Z,25.5
2022-09-28T03:21:54.828Z,24.3
2022-09-28T03:24:54.855Z,24.9
2022-09-28T03:27:54.877Z,24
2022-09-28T03:30:54.892Z,23.8
2022-09-28T03:33:54.890Z,23.5
2022-09-28T03:36:54.906Z,23.4
2022-09-28T03:39:54.928Z,21.7
2022-09-28T03:42:54.946Z,21.6
2022-09-28T03:45:55.072Z,20
2022-09-28T03:48:54.971Z,19.9
2022-09-28T03:51:54.991Z,18.6
2022-09-28T03:54:55.008Z,17.5
2022-09-28T03:57:55.027Z,17.8
2022-09-28T04:00:55.084Z,16.9
2022-09-28T04:03:55.135Z,16.3
2022-09-28T04:06:55.066Z,15.9
2022-09-28T04:09:55.084Z,15.5
2022-09-28T04:12:55.108Z,15.6
2022-09-28T04:15:55.120Z,14.7
2022-09-28T04:18:55.142Z,13.3
2022-09-28T04:21:55.183Z,13.7
2022-09-28T04:24:55.180Z,13.7
2022-09-28T04:27:55.202Z,13.4
2022-09-28T04:30:55.227Z,12.8
2022-09-28T04:33:55.241Z,13.6
2022-09-28T04:36:55.254Z,14.8
2022-09-28T04:39:55.306Z,15.3
2022-09-28T04:42:55.291Z,14.6
2022-09-28T04:45:55.405Z,12.9
2022-09-28T04:48:55.328Z,12.7
2022-09-28T04:51:55.345Z,13.2
2022-09-28T04:54:55.367Z,13.6
2022-09-28T04:57:55.400Z,13.3
2022-09-28T05:00:55.455Z,13.7
2022-09-28T05:03:55.413Z,14.1
2022-09-28T05:06:55.445Z,13.9
2022-09-28T05:09:55.461Z,14.4
2022-09-28T05:12:55.467Z,14.5
2022-09-28T05:15:58.171Z,14.1
2022-09-28T05:18:55.510Z,14.1
2022-09-28T05:21:55.521Z,13.9
2022-09-28T05:24:55.540Z,13.9
2022-09-28T05:27:55.549Z,14.4
2022-09-28T05:30:55.570Z,14.2
2022-09-28T05:33:55.605Z,13.7
2022-09-28T05:36:55.599Z,14.2
2022-09-28T05:39:55.615Z,14.1
2022-09-28T05:42:55.662Z,14.3
2022-09-28T05:45:56.037Z,13.8
2022-09-28T05:48:55.643Z,14.1
2022-09-28T05:51:55.684Z,14.2
2022-09-28T05:54:55.681Z,14.2
2022-09-28T05:57:55.689Z,14.2
2022-09-28T06:00:55.752Z,14.2
2022-09-28T06:03:55.715Z,14.3
2022-09-28T06:06:55.728Z,13.9
2022-09-28T06:09:55.841Z,14.3
2022-09-28T06:12:55.760Z,14.3
2022-09-28T06:15:55.780Z,14.2
2022-09-28T06:18:55.795Z,14.6
2022-09-28T06:21:58.394Z,15
2022-09-28T06:24:55.833Z,15
2022-09-28T06:27:55.867Z,15.6
2022-09-28T06:30:55.897Z,15.3
2022-09-28T06:33:55.862Z,14.5
2022-09-28T06:36:55.878Z,15.1
2022-09-28T06:39:56.017Z,14.9
2022-09-28T06:42:55.903Z,15.1
2022-09-28T06:45:55.988Z,15.4
2022-09-28T06:48:55.935Z,15.3
2022-09-28T06:51:55.941Z,15.4
2022-09-28T06:54:55.950Z,15.3
2022-09-28T06:57:56.023Z,14.5
2022-09-28T07:00:56.010Z,14.1
2022-09-28T07:03:56.009Z,14.2
2022-09-28T07:06:55.993Z,15
2022-09-28T07:09:56.067Z,14.5
2022-09-28T07:12:56.014Z,14.3
2022-09-28T07:15:56.020Z,14.4
2022-09-28T07:18:56.031Z,16.3
2022-09-28T07:22:03.371Z,15.8
2022-09-28T07:24:56.041Z,14.1
2022-09-28T07:27:56.055Z,13.7
2022-09-28T07:30:56.083Z,12.9
2022-09-28T07:33:56.066Z,12.1
2022-09-28T07:36:56.076Z,11.9
2022-09-28T07:39:56.102Z,11.6
2022-09-28T07:42:56.087Z,11.2
2022-09-28T07:45:56.131Z,11.3
2022-09-28T07:48:56.104Z,11.2
2022-09-28T07:51:56.105Z,10.6
2022-09-28T07:54:56.109Z,9.9
2022-09-28T07:57:56.149Z,8.8
2022-09-28T08:00:56.181Z,8
2022-09-28T08:03:56.136Z,7.8
2022-09-28T08:06:56.147Z,7.4
2022-09-28T08:09:56.158Z,7.8
2022-09-28T08:12:58.047Z,8.3
2022-09-28T08:15:56.194Z,8.3
2022-09-28T08:18:56.176Z,8.9
2022-09-28T08:21:56.186Z,8
2022-09-28T08:24:56.195Z,7.4
2022-09-28T08:27:56.204Z,7.2
2022-09-28T08:30:56.257Z,7.6
2022-09-28T08:33:56.256Z,6.6
2022-09-28T08:36:56.220Z,6.8
2022-09-28T08:39:56.222Z,6.5
2022-09-28T08:42:56.230Z,5.3
2022-09-28T08:45:56.274Z,5.3
2022-09-28T08:49:13.753Z,5.1
2022-09-28T08:51:56.330Z,4.6
2022-09-28T08:54:56.274Z,4.3
2022-09-28T08:57:56.269Z,4.4
2022-09-28T09:00:56.329Z,4.2
2022-09-28T09:03:56.289Z,4.3
2022-09-28T09:06:56.300Z,3.6
2022-09-28T09:09:56.334Z,4.2
2022-09-28T09:12:56.315Z,4.3
2022-09-28T09:15:56.323Z,4.5
2022-09-28T09:18:56.329Z,4.2
2022-09-28T09:21:56.333Z,4
2022-09-28T09:24:56.341Z,3.6
2022-09-28T09:27:56.367Z,4.8
2022-09-28T09:30:56.403Z,4.1
2022-09-28T09:33:56.374Z,4
2022-09-28T09:36:56.370Z,3.8
2022-09-28T09:39:56.380Z,3.7
2022-09-28T09:42:56.391Z,3.8
2022-09-28T09:45:56.467Z,3.2
2022-09-28T09:48:56.402Z,3.5
2022-09-28T09:51:56.412Z,3.6
2022-09-28T09:54:56.424Z,3.2
2022-09-28T09:57:56.432Z,2.9
2022-09-28T10:00:56.450Z,2.4
2022-09-28T10:03:56.491Z,2.4
2022-09-28T10:06:56.455Z,2.7
2022-09-28T10:09:56.462Z,2.6
2022-09-28T10:12:56.475Z,2.7
2022-09-28T10:15:56.479Z,2.8
2022-09-28T10:18:56.474Z,2.9
2022-09-28T10:21:56.512Z,2.2
2022-09-28T10:24:56.503Z,2.2
2022-09-28T10:27:56.511Z,1.9
2022-09-28T10:30:56.651Z,1.9
2022-09-28T10:33:56.545Z,2
2022-09-28T10:36:56.542Z,1.6
2022-09-28T10:39:56.578Z,1.7
2022-09-28T10:42:56.566Z,1.4
2022-09-28T10:45:56.633Z,1.3
2022-09-28T10:48:56.579Z,1.4
2022-09-28T10:51:56.585Z,1.3
2022-09-28T10:54:56.598Z,1.5
2022-09-28T10:57:56.623Z,1.4
2022-09-28T11:00:56.636Z,1.2
2022-09-28T11:03:56.620Z,1.1
2022-09-28T11:06:56.648Z,1.1
2022-09-28T11:09:56.629Z,1.2
2022-09-28T11:12:56.648Z,1.2
2022-09-28T11:15:56.763Z,1.2
2022-09-28T11:18:56.661Z,1.6
2022-09-28T11:21:56.672Z,1.6
2022-09-28T11:24:56.674Z,1.6
2022-09-28T11:27:56.688Z,1.3
2022-09-28T11:30:56.704Z,1.5
2022-09-28T11:33:56.735Z,1.4
2022-09-28T11:37:00.926Z,1.4
2022-09-28T11:39:56.725Z,1.2
2022-09-28T11:42:56.776Z,1.3
2022-09-28T11:45:56.898Z,1.4
2022-09-28T11:48:56.754Z,1.1
2022-09-28T11:51:56.781Z,0.9
2022-09-28T11:54:56.771Z,0.9
2022-09-28T11:57:56.779Z,0.8
2022-09-28T12:00:56.794Z,0.7
2022-09-28T12:03:56.801Z,0.6
2022-09-28T12:06:56.807Z,0.8
2022-09-28T12:09:56.847Z,1
2022-09-28T12:12:56.823Z,1
2022-09-28T12:16:23.241Z,1
2022-09-28T12:18:56.878Z,1.1
2022-09-28T12:21:56.853Z,1
2022-09-28T12:24:56.861Z,1.3
2022-09-28T12:27:57.019Z,1
2022-09-28T12:30:56.932Z,0.8
2022-09-28T12:33:56.893Z,0.8
2022-09-28T12:36:56.891Z,0.7
2022-09-28T12:39:58.205Z,0.9
2022-09-28T12:42:56.917Z,0.7
2022-09-28T12:46:11.333Z,0.9
2022-09-28T12:49:36.999Z,0.8
2022-09-28T12:51:56.932Z,0.8
2022-09-28T12:54:57.034Z,1
2022-09-28T12:57:56.954Z,0.8
2022-09-28T13:00:56.956Z,1.2
2022-09-28T13:03:56.996Z,1.1
2022-09-28T13:06:56.974Z,0.9
2022-09-28T13:09:56.979Z,0.8
2022-09-28T13:12:56.995Z,0.9
2022-09-28T13:15:57.065Z,0.8
2022-09-28T13:18:57.013Z,0.9
2022-09-28T13:21:57.043Z,0.9
2022-09-28T13:24:57.033Z,0.9
2022-09-28T13:27:57.039Z,1
2022-09-28T13:33:57.047Z,0.9
2022-09-28T13:36:57.058Z,1
2022-09-28T13:39:57.092Z,0.9
2022-09-28T13:42:57.085Z,1.3
2022-09-28T13:45:57.123Z,1.5
2022-09-28T13:48:57.090Z,2
2022-09-28T13:51:57.101Z,1.3
2022-09-28T13:54:57.119Z,1.2
2022-09-28T13:57:57.147Z,1.2
2022-09-28T14:00:57.130Z,1.5
2022-09-28T14:03:57.139Z,1.3
2022-09-28T14:06:57.144Z,1.2
2022-09-28T14:09:57.159Z,1.3
2022-09-28T14:12:57.167Z,1.2
2022-09-28T14:15:57.230Z,1.5
2022-09-28T14:18:57.174Z,1.2
2022-09-28T14:21:57.178Z,1.1
2022-09-28T14:24:57.186Z,1.1
2022-09-28T14:27:57.194Z,1.1
2022-09-28T14:30:57.243Z,1.1
2022-09-28T14:33:57.237Z,1.3
2022-09-28T14:36:57.221Z,1.4
2022-09-28T14:39:57.300Z,1.2
2022-09-28T14:42:57.236Z,1.3
2022-09-28T14:45:57.286Z,1.8
2022-09-28T14:48:57.255Z,1.9
2022-09-28T14:51:57.287Z,2
2022-09-28T14:54:57.269Z,2.3
2022-09-28T14:57:57.276Z,2.7
2022-09-28T15:00:57.307Z,2.6
2022-09-28T15:03:57.330Z,2.6
2022-09-28T15:06:57.297Z,2.3
2022-09-28T15:09:57.321Z,2.4
2022-09-28T15:12:57.307Z,2.4
2022-09-28T15:15:57.346Z,2.2
2022-09-28T15:18:57.318Z,2.3
2022-09-28T15:21:57.314Z,2.3
2022-09-28T15:25:01.497Z,2.3
2022-09-28T15:27:57.352Z,2.3
2022-09-28T15:30:57.401Z,2.5
2022-09-28T15:33:57.344Z,2.6
2022-09-28T15:36:57.343Z,2.4
2022-09-28T15:39:57.355Z,3.1
2022-09-28T15:42:59.334Z,2.6
2022-09-28T15:45:57.489Z,2.5
2022-09-28T15:48:57.368Z,2.5
2022-09-28T15:51:57.369Z,2.9
2022-09-28T15:54:57.372Z,2.5
2022-09-28T15:57:57.379Z,2.6
2022-09-28T16:00:57.379Z,2.8
2022-09-28T16:03:57.403Z,3
2022-09-28T16:06:57.389Z,3
2022-09-28T16:09:57.388Z,3.1
2022-09-28T16:12:57.398Z,3.3
2022-09-28T16:15:57.484Z,2.9
2022-09-28T16:18:57.403Z,2.5
2022-09-28T16:21:57.432Z,2.2
2022-09-28T16:24:57.406Z,2.3
2022-09-28T16:27:57.405Z,2.4
2022-09-28T16:30:57.441Z,8
2022-09-28T16:33:57.407Z,6.9
2022-09-28T16:36:57.407Z,4.8
2022-09-28T16:39:57.440Z,4.3
2022-09-28T16:42:57.420Z,3.9
2022-09-28T16:45:57.430Z,4.4
2022-09-28T16:48:57.423Z,3.7
2022-09-28T16:51:57.420Z,3.4
2022-09-28T16:54:57.422Z,3.8
2022-09-28T16:57:57.467Z,3.4
2022-09-28T17:00:57.445Z,2.8
2022-09-28T17:03:57.462Z,2.6
2022-09-28T17:06:57.451Z,2.9
2022-09-28T17:09:57.559Z,3.5
2022-09-28T17:12:57.475Z,4.5
2022-09-28T17:15:57.562Z,5.7
2022-09-28T17:18:57.479Z,5.7
2022-09-28T17:21:57.489Z,6.4
2022-09-28T17:24:57.497Z,6.1
2022-09-28T17:27:57.499Z,5.2
2022-09-28T17:30:57.555Z,5.3
2022-09-28T17:33:57.533Z,6.3
2022-09-28T17:36:57.524Z,8.1
2022-09-28T17:39:57.530Z,8.4
2022-09-28T17:42:57.538Z,7.1
2022-09-28T17:45:57.597Z,6.1
2022-09-28T17:48:57.562Z,5.4
2022-09-28T17:51:57.588Z,5
2022-09-28T17:54:57.567Z,5
2022-09-28T17:57:57.580Z,5.1
2022-09-28T18:00:57.580Z,5.2
2022-09-28T18:03:57.817Z,5.2
2022-09-28T18:06:57.596Z,4.7
2022-09-28T18:09:57.692Z,4.5
2022-09-28T18:12:57.615Z,4.8
2022-09-28T18:15:57.648Z,4.8
2022-09-28T18:18:57.658Z,4.5
2022-09-28T18:21:57.636Z,4.7
2022-09-28T18:24:57.640Z,4.7
2022-09-28T18:27:57.697Z,4.5
2022-09-28T18:30:57.714Z,4.7
2022-09-28T18:33:57.665Z,4.7
2022-09-28T18:36:57.665Z,4.6
2022-09-28T18:39:57.781Z,4.7
2022-09-28T18:42:57.688Z,4.8
2022-09-28T18:45:57.730Z,4.9
2022-09-28T18:48:57.712Z,5.2
2022-09-28T18:51:57.729Z,5.5
2022-09-28T18:54:57.723Z,6
2022-09-28T18:57:57.727Z,7.4
2022-09-28T19:01:08.623Z,6.9
2022-09-28T19:03:57.770Z,6.8
2022-09-28T19:06:57.748Z,7.4
2022-09-28T19:09:57.751Z,6.2
2022-09-28T19:12:57.755Z,6.2
2022-09-28T19:15:57.873Z,6.1
2022-09-28T19:18:57.770Z,6.7
2022-09-28T19:21:57.851Z,10.1
2022-09-28T19:24:57.788Z,9.3
2022-09-28T19:27:57.796Z,6.8
2022-09-28T19:30:57.859Z,5.7
2022-09-28T19:33:57.819Z,7.2
2022-09-28T19:36:57.833Z,7.3
2022-09-28T19:39:57.878Z,6.8
2022-09-28T19:42:57.868Z,7.4
2022-09-28T19:45:57.946Z,7.2
2022-09-28T19:48:57.909Z,7.6
2022-09-28T19:52:14.882Z,8.1
2022-09-28T19:54:57.935Z,7.1
2022-09-28T19:57:57.972Z,7.1
2022-09-28T20:00:57.969Z,7.6
2022-09-28T20:03:57.980Z,7.2
2022-09-28T20:06:57.989Z,7.1
2022-09-28T20:09:58.005Z,7.1
2022-09-28T20:12:58.013Z,7.6
2022-09-28T20:15:58.097Z,6.8
2022-09-28T20:18:58.019Z,7
2022-09-28T20:21:58.024Z,6.8
2022-09-28T20:24:58.042Z,6.8
2022-09-28T20:27:58.054Z,8.1
2022-09-28T20:30:58.121Z,10.1
2022-09-28T20:33:58.106Z,9.5
2022-09-28T20:36:58.099Z,7.8
2022-09-28T20:39:58.109Z,8.4
2022-09-28T20:42:58.124Z,9.9
2022-09-28T20:45:58.181Z,9.4
2022-09-28T20:48:58.145Z,8.5
2022-09-28T20:51:58.184Z,10.2
2022-09-28T20:54:58.177Z,8.2
2022-09-28T20:57:58.188Z,7.6
2022-09-28T21:00:58.196Z,7.8
2022-09-28T21:03:58.212Z,7.9
2022-09-28T21:06:58.215Z,11
2022-09-28T21:09:58.241Z,11.1
2022-09-28T21:12:58.229Z,11
2022-09-28T21:15:58.272Z,9.3
2022-09-28T21:18:58.254Z,8.5
2022-09-28T21:21:58.268Z,8.5
2022-09-28T21:24:58.280Z,8.1
2022-09-28T21:27:58.322Z,8.6
2022-09-28T21:30:58.420Z,9
2022-09-28T21:33:58.319Z,9.5
2022-09-28T21:36:58.336Z,9.4
2022-09-28T21:39:58.355Z,10.3
2022-09-28T21:42:58.364Z,10.4
2022-09-28T21:45:58.523Z,10.6
2022-09-28T21:48:58.392Z,10.4
2022-09-28T21:51:58.407Z,10.7
2022-09-28T21:54:58.409Z,10.6
2022-09-28T21:57:58.418Z,11.2
2022-09-28T22:00:59.053Z,11.2
2022-09-28T22:03:58.454Z,11.1
2022-09-28T22:06:58.448Z,11.5
2022-09-28T22:09:58.464Z,12.2
2022-09-28T22:12:58.478Z,12
2022-09-28T22:15:58.548Z,11.9
2022-09-28T22:18:58.520Z,11.7
2022-09-28T22:21:58.549Z,12.1
2022-09-28T22:24:58.537Z,11.6
2022-09-28T22:27:58.552Z,11.9
2022-09-28T22:30:58.622Z,12.1
2022-09-28T22:33:58.576Z,11.7
2022-09-28T22:36:58.597Z,11.2
2022-09-28T22:39:58.630Z,11.8
2022-09-28T22:42:58.621Z,11.3
2022-09-28T22:45:59.325Z,11.7
2022-09-28T22:48:58.650Z,11.5
2022-09-28T22:51:58.639Z,12.4
2022-09-28T22:54:58.668Z,12
2022-09-28T22:57:58.698Z,12.2
2022-09-28T23:00:58.692Z,12.8
2022-09-28T23:03:58.705Z,12.8
2022-09-28T23:06:58.730Z,13.1
2022-09-28T23:09:58.732Z,12.4
2022-09-28T23:12:58.751Z,13.7
2022-09-28T23:15:58.817Z,14.2
2022-09-28T23:18:58.777Z,13.7
2022-09-28T23:21:58.801Z,13.8
2022-09-28T23:24:58.807Z,13.8
2022-09-28T23:27:58.820Z,14.2
2022-09-28T23:30:58.849Z,13.5
2022-09-28T23:33:58.905Z,13.6
2022-09-28T23:36:58.864Z,14.2
2022-09-28T23:39:58.862Z,14.2
2022-09-28T23:42:58.870Z,13.6
2022-09-28T23:45:58.936Z,14.4
2022-09-28T23:48:58.903Z,14.9
2022-09-28T23:51:58.945Z,14.9
2022-09-28T23:54:58.932Z,14.9
2022-09-28T23:57:58.952Z,15.3
